sensor_id;sensor_type;location;lat;lon;timestamp;temperature;humidity
48535;DHT22;34323;52.022;5.686;2023-01-29T00:01:16;7.50;99.90
48535;DHT22;34323;52.022;5.686;2023-01-29T00:03:42;7.90;99.90
48535;DHT22;34323;52.022;5.686;2023-01-29T00:06:08;8.30;99.90
48535;DHT22;34323;52.022;5.686;2023-01-29T00:08:37;8.50;99.90
48535;DHT22;34323;52.022;5.686;2023-01-29T00:11:05;8.60;99.90
48535;DHT22;34323;52.022;5.686;2023-01-29T00:13:31;8.40;99.90
48535;DHT22;34323;52.022;5.686;2023-01-29T00:15:59;8.40;99.90
48535;DHT22;34323;52.022;5.686;2023-01-29T00:18:25;8.60;99.90
48535;DHT22;34323;52.022;5.686;2023-01-29T00:20:51;9.00;99.90
48535;DHT22;34323;52.022;5.686;2023-01-29T00:23:17;9.20;99.90
48535;DHT22;34323;52.022;5.686;2023-01-29T00:25:43;9.60;99.90
48535;DHT22;34323;52.022;5.686;2023-01-29T00:28:09;9.50;99.90
48535;DHT22;34323;52.022;5.686;2023-01-29T00:30:35;8.90;99.90
48535;DHT22;34323;52.022;5.686;2023-01-29T00:33:02;8.40;99.90
48535;DHT22;34323;52.022;5.686;2023-01-29T00:35:27;8.10;99.90
48535;DHT22;34323;52.022;5.686;2023-01-29T00:37:56;8.20;99.90
48535;DHT22;34323;52.022;5.686;2023-01-29T00:40:22;8.50;99.90
48535;DHT22;34323;52.022;5.686;2023-01-29T00:42:48;8.40;99.90
48535;DHT22;34323;52.022;5.686;2023-01-29T00:45:33;8.20;99.90
48535;DHT22;34323;52.022;5.686;2023-01-29T00:48:01;8.10;99.90
48535;DHT22;34323;52.022;5.686;2023-01-29T00:50:27;8.20;99.90
48535;DHT22;34323;52.022;5.686;2023-01-29T00:52:52;8.40;99.90
48535;DHT22;34323;52.022;5.686;2023-01-29T00:55:19;8.70;99.90
48535;DHT22;34323;52.022;5.686;2023-01-29T00:57:44;8.60;99.90
48535;DHT22;34323;52.022;5.686;2023-01-29T01:00:12;8.30;99.90
48535;DHT22;34323;52.022;5.686;2023-01-29T01:02:38;8.30;99.90
48535;DHT22;34323;52.022;5.686;2023-01-29T01:05:22;8.20;99.90
48535;DHT22;34323;52.022;5.686;2023-01-29T01:07:50;8.10;99.90
48535;DHT22;34323;52.022;5.686;2023-01-29T01:10:23;8.00;99.90
48535;DHT22;34323;52.022;5.686;2023-01-29T01:12:56;8.30;99.90
48535;DHT22;34323;52.022;5.686;2023-01-29T01:15:26;8.40;99.90
48535;DHT22;34323;52.022;5.686;2023-01-29T01:18:00;8.00;99.90
48535;DHT22;34323;52.022;5.686;2023-01-29T01:20:27;8.10;99.90
48535;DHT22;34323;52.022;5.686;2023-01-29T01:22:53;8.10;99.90
48535;DHT22;34323;52.022;5.686;2023-01-29T01:25:19;7.70;99.90
48535;DHT22;34323;52.022;5.686;2023-01-29T01:27:45;7.90;99.90
48535;DHT22;34323;52.022;5.686;2023-01-29T01:30:14;8.10;99.90
48535;DHT22;34323;52.022;5.686;2023-01-29T01:32:40;8.00;99.90
48535;DHT22;34323;52.022;5.686;2023-01-29T01:35:08;7.90;99.90
48535;DHT22;34323;52.022;5.686;2023-01-29T01:37:34;7.70;99.90
48535;DHT22;34323;52.022;5.686;2023-01-29T01:40:03;7.90;99.90
48535;DHT22;34323;52.022;5.686;2023-01-29T01:42:30;8.00;99.90
48535;DHT22;34323;52.022;5.686;2023-01-29T01:44:59;7.70;99.90
48535;DHT22;34323;52.022;5.686;2023-01-29T01:47:36;7.70;99.90
48535;DHT22;34323;52.022;5.686;2023-01-29T01:50:13;7.60;99.90
48535;DHT22;34323;52.022;5.686;2023-01-29T01:52:44;7.60;99.90
48535;DHT22;34323;52.022;5.686;2023-01-29T01:55:13;7.90;99.90
48535;DHT22;34323;52.022;5.686;2023-01-29T01:57:39;7.60;99.90
48535;DHT22;34323;52.022;5.686;2023-01-29T02:00:11;7.40;99.90
48535;DHT22;34323;52.022;5.686;2023-01-29T02:02:41;7.40;99.90
48535;DHT22;34323;52.022;5.686;2023-01-29T02:05:27;7.00;99.90
48535;DHT22;34323;52.022;5.686;2023-01-29T02:08:12;6.50;99.90
48535;DHT22;34323;52.022;5.686;2023-01-29T02:10:57;6.70;99.90
48535;DHT22;34323;52.022;5.686;2023-01-29T02:13:23;6.40;99.90
48535;DHT22;34323;52.022;5.686;2023-01-29T02:15:48;6.10;99.90
48535;DHT22;34323;52.022;5.686;2023-01-29T02:18:15;6.30;99.90
48535;DHT22;34323;52.022;5.686;2023-01-29T02:20:47;6.40;99.90
48535;DHT22;34323;52.022;5.686;2023-01-29T02:23:57;6.50;99.90
48535;DHT22;34323;52.022;5.686;2023-01-29T02:26:52;6.30;99.90
48535;DHT22;34323;52.022;5.686;2023-01-29T02:32:31;7.00;99.90
48535;DHT22;34323;52.022;5.686;2023-01-29T02:35:09;7.10;99.90
48535;DHT22;34323;52.022;5.686;2023-01-29T02:38:27;7.30;99.90
48535;DHT22;34323;52.022;5.686;2023-01-29T02:43:47;7.30;99.90
48535;DHT22;34323;52.022;5.686;2023-01-29T02:46:23;7.40;99.90
48535;DHT22;34323;52.022;5.686;2023-01-29T02:48:58;7.10;99.90
48535;DHT22;34323;52.022;5.686;2023-01-29T02:51:45;7.10;99.90
48535;DHT22;34323;52.022;5.686;2023-01-29T02:56:58;7.40;99.90
48535;DHT22;34323;52.022;5.686;2023-01-29T02:59:30;7.30;99.90
48535;DHT22;34323;52.022;5.686;2023-01-29T03:02:02;7.30;99.90
48535;DHT22;34323;52.022;5.686;2023-01-29T03:04:32;7.50;99.90
48535;DHT22;34323;52.022;5.686;2023-01-29T03:07:04;8.10;99.90
48535;DHT22;34323;52.022;5.686;2023-01-29T03:09:32;8.40;99.90
48535;DHT22;34323;52.022;5.686;2023-01-29T03:12:05;7.90;99.90
48535;DHT22;34323;52.022;5.686;2023-01-29T03:14:46;7.60;99.90
48535;DHT22;34323;52.022;5.686;2023-01-29T03:17:39;7.40;99.90
48535;DHT22;34323;52.022;5.686;2023-01-29T03:20:07;7.10;99.90
48535;DHT22;34323;52.022;5.686;2023-01-29T03:22:38;7.20;99.90
48535;DHT22;34323;52.022;5.686;2023-01-29T03:25:07;7.30;99.90
48535;DHT22;34323;52.022;5.686;2023-01-29T03:27:56;7.50;99.90
48535;DHT22;34323;52.022;5.686;2023-01-29T03:30:52;7.50;99.90
48535;DHT22;34323;52.022;5.686;2023-01-29T03:33:48;7.60;99.90
48535;DHT22;34323;52.022;5.686;2023-01-29T03:36:36;7.00;99.90
48535;DHT22;34323;52.022;5.686;2023-01-29T03:39:09;6.90;99.90
48535;DHT22;34323;52.022;5.686;2023-01-29T03:41:45;7.20;99.90
48535;DHT22;34323;52.022;5.686;2023-01-29T03:44:29;7.50;99.90
48535;DHT22;34323;52.022;5.686;2023-01-29T03:47:24;7.30;99.90
48535;DHT22;34323;52.022;5.686;2023-01-29T03:55:51;7.40;99.90
48535;DHT22;34323;52.022;5.686;2023-01-29T03:58:34;7.50;99.90
48535;DHT22;34323;52.022;5.686;2023-01-29T04:01:06;7.40;99.90
48535;DHT22;34323;52.022;5.686;2023-01-29T04:03:37;7.20;99.90
48535;DHT22;34323;52.022;5.686;2023-01-29T04:06:08;7.30;99.90
48535;DHT22;34323;52.022;5.686;2023-01-29T04:08:44;7.50;99.90
48535;DHT22;34323;52.022;5.686;2023-01-29T04:11:14;7.60;99.90
48535;DHT22;34323;52.022;5.686;2023-01-29T04:13:42;7.20;99.90
48535;DHT22;34323;52.022;5.686;2023-01-29T04:16:13;7.20;99.90
48535;DHT22;34323;52.022;5.686;2023-01-29T04:18:44;7.50;99.90
48535;DHT22;34323;52.022;5.686;2023-01-29T04:21:10;7.60;99.90
48535;DHT22;34323;52.022;5.686;2023-01-29T04:23:35;7.50;99.90
48535;DHT22;34323;52.022;5.686;2023-01-29T04:28:58;7.20;99.90
48535;DHT22;34323;52.022;5.686;2023-01-29T04:31:28;7.10;99.90
48535;DHT22;34323;52.022;5.686;2023-01-29T04:34:05;7.10;99.90
48535;DHT22;34323;52.022;5.686;2023-01-29T04:36:58;6.90;99.90
48535;DHT22;34323;52.022;5.686;2023-01-29T04:42:42;6.80;99.90
48535;DHT22;34323;52.022;5.686;2023-01-29T04:45:17;6.40;99.90
48535;DHT22;34323;52.022;5.686;2023-01-29T04:53:37;6.20;99.90
48535;DHT22;34323;52.022;5.686;2023-01-29T04:59:08;7.00;99.90
48535;DHT22;34323;52.022;5.686;2023-01-29T05:01:37;7.30;99.90
48535;DHT22;34323;52.022;5.686;2023-01-29T05:04:08;7.50;99.90
48535;DHT22;34323;52.022;5.686;2023-01-29T05:06:36;7.80;99.90
48535;DHT22;34323;52.022;5.686;2023-01-29T05:09:02;7.80;99.90
48535;DHT22;34323;52.022;5.686;2023-01-29T05:11:32;7.30;99.90
48535;DHT22;34323;52.022;5.686;2023-01-29T05:14:02;7.30;99.90
48535;DHT22;34323;52.022;5.686;2023-01-29T05:16:33;7.30;99.90
48535;DHT22;34323;52.022;5.686;2023-01-29T05:19:10;7.40;99.90
48535;DHT22;34323;52.022;5.686;2023-01-29T05:21:37;7.20;99.90
48535;DHT22;34323;52.022;5.686;2023-01-29T05:24:29;6.90;99.90
48535;DHT22;34323;52.022;5.686;2023-01-29T05:26:55;7.20;99.90
48535;DHT22;34323;52.022;5.686;2023-01-29T05:29:45;7.00;99.90
48535;DHT22;34323;52.022;5.686;2023-01-29T05:32:11;7.30;99.90
48535;DHT22;34323;52.022;5.686;2023-01-29T05:34:37;7.30;99.90
48535;DHT22;34323;52.022;5.686;2023-01-29T05:37:02;7.30;99.90
48535;DHT22;34323;52.022;5.686;2023-01-29T05:39:28;7.40;99.90
48535;DHT22;34323;52.022;5.686;2023-01-29T05:41:54;7.60;99.90
48535;DHT22;34323;52.022;5.686;2023-01-29T05:44:19;7.90;99.90
48535;DHT22;34323;52.022;5.686;2023-01-29T05:46:45;7.50;99.90
48535;DHT22;34323;52.022;5.686;2023-01-29T05:49:11;7.20;99.90
48535;DHT22;34323;52.022;5.686;2023-01-29T05:51:37;7.40;99.90
48535;DHT22;34323;52.022;5.686;2023-01-29T05:54:02;7.50;99.90
48535;DHT22;34323;52.022;5.686;2023-01-29T05:56:28;8.00;99.90
48535;DHT22;34323;52.022;5.686;2023-01-29T05:58:54;8.30;99.90
48535;DHT22;34323;52.022;5.686;2023-01-29T06:01:23;8.10;99.90
48535;DHT22;34323;52.022;5.686;2023-01-29T06:03:48;7.70;99.90
48535;DHT22;34323;52.022;5.686;2023-01-29T06:06:14;7.10;99.90
48535;DHT22;34323;52.022;5.686;2023-01-29T06:08:40;6.90;99.90
48535;DHT22;34323;52.022;5.686;2023-01-29T06:11:07;7.30;99.90
48535;DHT22;34323;52.022;5.686;2023-01-29T06:13:33;7.50;99.90
48535;DHT22;34323;52.022;5.686;2023-01-29T06:15:58;6.90;99.90
48535;DHT22;34323;52.022;5.686;2023-01-29T06:18:24;6.70;99.90
48535;DHT22;34323;52.022;5.686;2023-01-29T06:20:50;6.80;99.90
48535;DHT22;34323;52.022;5.686;2023-01-29T06:23:15;7.00;99.90
48535;DHT22;34323;52.022;5.686;2023-01-29T06:25:41;7.20;99.90
48535;DHT22;34323;52.022;5.686;2023-01-29T06:28:06;7.30;99.90
48535;DHT22;34323;52.022;5.686;2023-01-29T06:30:32;7.20;99.90
48535;DHT22;34323;52.022;5.686;2023-01-29T06:32:58;6.90;99.90
48535;DHT22;34323;52.022;5.686;2023-01-29T06:35:25;6.80;99.90
48535;DHT22;34323;52.022;5.686;2023-01-29T06:37:51;6.70;99.90
48535;DHT22;34323;52.022;5.686;2023-01-29T06:40:17;6.60;99.90
48535;DHT22;34323;52.022;5.686;2023-01-29T06:42:42;6.80;99.90
48535;DHT22;34323;52.022;5.686;2023-01-29T06:45:08;6.90;99.90
48535;DHT22;34323;52.022;5.686;2023-01-29T06:47:34;7.10;99.90
48535;DHT22;34323;52.022;5.686;2023-01-29T06:50:00;7.00;99.90
48535;DHT22;34323;52.022;5.686;2023-01-29T06:52:26;6.90;99.90
48535;DHT22;34323;52.022;5.686;2023-01-29T06:54:53;6.80;99.90
48535;DHT22;34323;52.022;5.686;2023-01-29T06:57:19;6.80;99.90
48535;DHT22;34323;52.022;5.686;2023-01-29T06:59:45;6.70;99.90
48535;DHT22;34323;52.022;5.686;2023-01-29T07:02:11;7.00;99.90
48535;DHT22;34323;52.022;5.686;2023-01-29T07:04:36;7.00;99.90
48535;DHT22;34323;52.022;5.686;2023-01-29T07:07:02;7.10;99.90
48535;DHT22;34323;52.022;5.686;2023-01-29T07:09:28;7.10;99.90
48535;DHT22;34323;52.022;5.686;2023-01-29T07:11:53;6.70;99.90
48535;DHT22;34323;52.022;5.686;2023-01-29T07:14:19;6.40;99.90
48535;DHT22;34323;52.022;5.686;2023-01-29T07:16:44;6.40;99.90
48535;DHT22;34323;52.022;5.686;2023-01-29T07:19:10;6.60;99.90
48535;DHT22;34323;52.022;5.686;2023-01-29T07:21:36;6.60;99.90
48535;DHT22;34323;52.022;5.686;2023-01-29T07:24:01;6.50;99.90
48535;DHT22;34323;52.022;5.686;2023-01-29T07:26:27;6.30;99.90
48535;DHT22;34323;52.022;5.686;2023-01-29T07:28:53;6.40;99.90
48535;DHT22;34323;52.022;5.686;2023-01-29T07:31:18;6.40;99.90
48535;DHT22;34323;52.022;5.686;2023-01-29T07:33:44;6.00;99.90
48535;DHT22;34323;52.022;5.686;2023-01-29T07:36:11;6.30;99.90
48535;DHT22;34323;52.022;5.686;2023-01-29T07:38:36;6.50;99.90
48535;DHT22;34323;52.022;5.686;2023-01-29T07:41:02;6.70;99.90
48535;DHT22;34323;52.022;5.686;2023-01-29T07:43:28;6.80;99.90
48535;DHT22;34323;52.022;5.686;2023-01-29T07:45:54;6.70;99.90
48535;DHT22;34323;52.022;5.686;2023-01-29T07:48:20;6.60;99.90
48535;DHT22;34323;52.022;5.686;2023-01-29T07:50:53;6.40;99.90
48535;DHT22;34323;52.022;5.686;2023-01-29T07:53:19;6.60;99.90
48535;DHT22;34323;52.022;5.686;2023-01-29T07:55:45;6.90;99.90
48535;DHT22;34323;52.022;5.686;2023-01-29T07:58:11;7.40;99.90
48535;DHT22;34323;52.022;5.686;2023-01-29T08:00:37;7.40;99.90
48535;DHT22;34323;52.022;5.686;2023-01-29T08:03:05;6.80;99.90
48535;DHT22;34323;52.022;5.686;2023-01-29T08:05:31;6.90;99.90
48535;DHT22;34323;52.022;5.686;2023-01-29T08:07:57;7.00;99.90
48535;DHT22;34323;52.022;5.686;2023-01-29T08:10:23;7.10;99.90
48535;DHT22;34323;52.022;5.686;2023-01-29T08:12:53;6.60;99.90
48535;DHT22;34323;52.022;5.686;2023-01-29T08:15:19;6.70;99.90
48535;DHT22;34323;52.022;5.686;2023-01-29T08:17:45;6.80;99.90
48535;DHT22;34323;52.022;5.686;2023-01-29T08:20:11;6.20;99.90
48535;DHT22;34323;52.022;5.686;2023-01-29T08:22:36;6.30;99.90
48535;DHT22;34323;52.022;5.686;2023-01-29T08:25:02;6.30;99.90
48535;DHT22;34323;52.022;5.686;2023-01-29T08:27:27;6.70;99.90
48535;DHT22;34323;52.022;5.686;2023-01-29T08:29:53;6.90;99.90
48535;DHT22;34323;52.022;5.686;2023-01-29T08:32:18;7.10;99.90
48535;DHT22;34323;52.022;5.686;2023-01-29T08:34:44;6.80;99.90
48535;DHT22;34323;52.022;5.686;2023-01-29T08:37:09;6.70;99.90
48535;DHT22;34323;52.022;5.686;2023-01-29T08:39:35;6.40;99.90
48535;DHT22;34323;52.022;5.686;2023-01-29T08:42:01;6.30;99.90
48535;DHT22;34323;52.022;5.686;2023-01-29T08:44:26;6.10;99.90
48535;DHT22;34323;52.022;5.686;2023-01-29T08:46:52;6.10;99.90
48535;DHT22;34323;52.022;5.686;2023-01-29T08:49:17;6.40;99.90
48535;DHT22;34323;52.022;5.686;2023-01-29T08:51:43;6.00;99.90
48535;DHT22;34323;52.022;5.686;2023-01-29T08:54:08;5.80;99.90
48535;DHT22;34323;52.022;5.686;2023-01-29T08:56:34;5.90;99.90
48535;DHT22;34323;52.022;5.686;2023-01-29T08:58:59;5.90;99.90
48535;DHT22;34323;52.022;5.686;2023-01-29T09:01:25;6.30;99.90
48535;DHT22;34323;52.022;5.686;2023-01-29T09:03:50;6.60;99.90
48535;DHT22;34323;52.022;5.686;2023-01-29T09:06:17;6.20;99.90
48535;DHT22;34323;52.022;5.686;2023-01-29T09:08:43;5.80;99.90
48535;DHT22;34323;52.022;5.686;2023-01-29T09:11:08;6.10;99.90
48535;DHT22;34323;52.022;5.686;2023-01-29T09:13:35;6.40;99.90
48535;DHT22;34323;52.022;5.686;2023-01-29T09:16:01;6.40;99.90
48535;DHT22;34323;52.022;5.686;2023-01-29T09:18:28;6.60;99.90
48535;DHT22;34323;52.022;5.686;2023-01-29T09:20:54;6.80;99.90
48535;DHT22;34323;52.022;5.686;2023-01-29T09:23:20;6.80;99.90
48535;DHT22;34323;52.022;5.686;2023-01-29T09:25:46;6.80;99.90
48535;DHT22;34323;52.022;5.686;2023-01-29T09:28:12;6.90;99.90
48535;DHT22;34323;52.022;5.686;2023-01-29T09:30:37;7.30;99.90
48535;DHT22;34323;52.022;5.686;2023-01-29T09:33:04;7.10;99.90
48535;DHT22;34323;52.022;5.686;2023-01-29T09:35:30;6.90;99.90
48535;DHT22;34323;52.022;5.686;2023-01-29T09:37:56;7.00;99.90
48535;DHT22;34323;52.022;5.686;2023-01-29T09:40:34;7.10;99.90
48535;DHT22;34323;52.022;5.686;2023-01-29T09:43:06;7.00;99.90
48535;DHT22;34323;52.022;5.686;2023-01-29T09:45:35;6.20;99.90
48535;DHT22;34323;52.022;5.686;2023-01-29T09:48:03;6.20;99.90
48535;DHT22;34323;52.022;5.686;2023-01-29T09:50:37;6.50;99.90
48535;DHT22;34323;52.022;5.686;2023-01-29T09:53:14;6.70;99.90
48535;DHT22;34323;52.022;5.686;2023-01-29T09:55:58;6.10;99.90
48535;DHT22;34323;52.022;5.686;2023-01-29T09:58:33;6.00;99.90
48535;DHT22;34323;52.022;5.686;2023-01-29T10:15:49;6.60;99.90
48535;DHT22;34323;52.022;5.686;2023-01-29T10:21:27;7.30;99.90
48535;DHT22;34323;52.022;5.686;2023-01-29T10:27:15;7.40;99.90
48535;DHT22;34323;52.022;5.686;2023-01-29T10:29:42;7.30;99.90
48535;DHT22;34323;52.022;5.686;2023-01-29T10:32:14;7.20;99.90
48535;DHT22;34323;52.022;5.686;2023-01-29T10:34:55;7.00;99.90
48535;DHT22;34323;52.022;5.686;2023-01-29T10:37:25;6.70;99.90
48535;DHT22;34323;52.022;5.686;2023-01-29T10:39:52;6.90;99.90
48535;DHT22;34323;52.022;5.686;2023-01-29T10:42:34;6.70;99.90
48535;DHT22;34323;52.022;5.686;2023-01-29T10:50:45;6.80;99.90
48535;DHT22;34323;52.022;5.686;2023-01-29T10:53:34;6.90;99.90
48535;DHT22;34323;52.022;5.686;2023-01-29T10:59:20;6.80;99.90
48535;DHT22;34323;52.022;5.686;2023-01-29T11:01:52;7.30;99.90
48535;DHT22;34323;52.022;5.686;2023-01-29T11:04:21;7.10;99.90
48535;DHT22;34323;52.022;5.686;2023-01-29T11:06:48;6.80;99.90
48535;DHT22;34323;52.022;5.686;2023-01-29T11:09:34;6.90;99.90
48535;DHT22;34323;52.022;5.686;2023-01-29T11:12:13;6.70;99.90
48535;DHT22;34323;52.022;5.686;2023-01-29T11:18:12;7.20;99.90
48535;DHT22;34323;52.022;5.686;2023-01-29T11:20:41;7.60;99.90
48535;DHT22;34323;52.022;5.686;2023-01-29T11:23:30;7.50;99.90
48535;DHT22;34323;52.022;5.686;2023-01-29T11:25:58;7.60;99.90
48535;DHT22;34323;52.022;5.686;2023-01-29T11:28:44;7.20;99.90
48535;DHT22;34323;52.022;5.686;2023-01-29T11:31:23;6.90;99.90
48535;DHT22;34323;52.022;5.686;2023-01-29T11:33:53;6.80;99.90
48535;DHT22;34323;52.022;5.686;2023-01-29T11:36:31;7.00;99.90
48535;DHT22;34323;52.022;5.686;2023-01-29T11:39:17;7.30;99.90
48535;DHT22;34323;52.022;5.686;2023-01-29T11:41:55;7.30;99.90
48535;DHT22;34323;52.022;5.686;2023-01-29T11:44:32;7.60;99.90
48535;DHT22;34323;52.022;5.686;2023-01-29T11:49:49;8.10;99.90
48535;DHT22;34323;52.022;5.686;2023-01-29T11:52:19;7.80;99.90
48535;DHT22;34323;52.022;5.686;2023-01-29T11:57:35;7.80;99.90
48535;DHT22;34323;52.022;5.686;2023-01-29T12:00:22;7.60;99.90
48535;DHT22;34323;52.022;5.686;2023-01-29T12:03:12;7.70;99.90
48535;DHT22;34323;52.022;5.686;2023-01-29T12:05:52;7.40;99.90
48535;DHT22;34323;52.022;5.686;2023-01-29T12:08:18;7.70;99.90
48535;DHT22;34323;52.022;5.686;2023-01-29T12:10:47;8.00;99.90
48535;DHT22;34323;52.022;5.686;2023-01-29T12:15:43;8.10;99.90
48535;DHT22;34323;52.022;5.686;2023-01-29T12:18:29;8.20;99.90
48535;DHT22;34323;52.022;5.686;2023-01-29T12:21:02;8.50;99.90
48535;DHT22;34323;52.022;5.686;2023-01-29T12:26:10;8.60;99.90
48535;DHT22;34323;52.022;5.686;2023-01-29T12:29:05;8.40;99.90
48535;DHT22;34323;52.022;5.686;2023-01-29T12:31:56;7.90;99.90
48535;DHT22;34323;52.022;5.686;2023-01-29T12:40:12;7.50;99.90
48535;DHT22;34323;52.022;5.686;2023-01-29T12:42:40;7.70;99.90
48535;DHT22;34323;52.022;5.686;2023-01-29T12:45:08;7.50;99.90
48535;DHT22;34323;52.022;5.686;2023-01-29T12:47:56;7.80;99.90
48535;DHT22;34323;52.022;5.686;2023-01-29T12:50:27;7.90;99.90
48535;DHT22;34323;52.022;5.686;2023-01-29T12:52:58;8.20;99.90
48535;DHT22;34323;52.022;5.686;2023-01-29T12:55:50;7.70;99.90
48535;DHT22;34323;52.022;5.686;2023-01-29T12:58:40;7.90;99.90
48535;DHT22;34323;52.022;5.686;2023-01-29T13:04:05;8.20;99.90
48535;DHT22;34323;52.022;5.686;2023-01-29T13:06:50;8.20;99.90
48535;DHT22;34323;52.022;5.686;2023-01-29T13:09:19;8.10;99.90
48535;DHT22;34323;52.022;5.686;2023-01-29T13:17:39;8.40;99.90
48535;DHT22;34323;52.022;5.686;2023-01-29T13:20:29;8.50;99.90
48535;DHT22;34323;52.022;5.686;2023-01-29T13:23:01;8.60;99.90
48535;DHT22;34323;52.022;5.686;2023-01-29T13:25:28;8.30;99.90
48535;DHT22;34323;52.022;5.686;2023-01-29T13:27:54;8.60;99.90
48535;DHT22;34323;52.022;5.686;2023-01-29T13:30:37;8.80;99.90
48535;DHT22;34323;52.022;5.686;2023-01-29T13:33:04;8.80;99.90
48535;DHT22;34323;52.022;5.686;2023-01-29T13:35:40;8.60;99.90
48535;DHT22;34323;52.022;5.686;2023-01-29T13:38:27;7.80;99.90
48535;DHT22;34323;52.022;5.686;2023-01-29T13:41:00;7.50;99.90
48535;DHT22;34323;52.022;5.686;2023-01-29T13:43:26;7.40;99.90
48535;DHT22;34323;52.022;5.686;2023-01-29T13:45:54;7.40;99.90
48535;DHT22;34323;52.022;5.686;2023-01-29T13:48:25;7.50;99.90
48535;DHT22;34323;52.022;5.686;2023-01-29T13:50:56;7.30;99.90
48535;DHT22;34323;52.022;5.686;2023-01-29T13:53:28;7.10;99.90
48535;DHT22;34323;52.022;5.686;2023-01-29T13:55:54;7.40;99.90
48535;DHT22;34323;52.022;5.686;2023-01-29T14:00:56;8.40;99.90
48535;DHT22;34323;52.022;5.686;2023-01-29T14:13:48;7.60;99.90
48535;DHT22;34323;52.022;5.686;2023-01-29T14:18:55;8.10;99.90
48535;DHT22;34323;52.022;5.686;2023-01-29T14:21:24;8.40;99.90
48535;DHT22;34323;52.022;5.686;2023-01-29T14:24:07;8.30;99.90
48535;DHT22;34323;52.022;5.686;2023-01-29T14:26:42;7.80;99.90
48535;DHT22;34323;52.022;5.686;2023-01-29T14:29:19;7.40;99.90
48535;DHT22;34323;52.022;5.686;2023-01-29T14:34:34;7.60;99.90
48535;DHT22;34323;52.022;5.686;2023-01-29T14:37:19;7.90;99.90
48535;DHT22;34323;52.022;5.686;2023-01-29T14:39:50;7.90;99.90
48535;DHT22;34323;52.022;5.686;2023-01-29T14:42:35;7.80;99.90
48535;DHT22;34323;52.022;5.686;2023-01-29T14:45:27;7.70;99.90
48535;DHT22;34323;52.022;5.686;2023-01-29T14:47:55;7.50;99.90
48535;DHT22;34323;52.022;5.686;2023-01-29T14:55:51;7.70;99.90
48535;DHT22;34323;52.022;5.686;2023-01-29T14:59:25;7.70;99.90
48535;DHT22;34323;52.022;5.686;2023-01-29T15:01:22;7.60;99.90
48535;DHT22;34323;52.022;5.686;2023-01-29T15:03:51;7.60;99.90
48535;DHT22;34323;52.022;5.686;2023-01-29T15:06:43;7.80;99.90
48535;DHT22;34323;52.022;5.686;2023-01-29T15:12:27;7.30;99.90
48535;DHT22;34323;52.022;5.686;2023-01-29T15:18:02;7.30;99.90
48535;DHT22;34323;52.022;5.686;2023-01-29T15:20:32;7.10;99.90
48535;DHT22;34323;52.022;5.686;2023-01-29T15:22:58;7.10;99.90
48535;DHT22;34323;52.022;5.686;2023-01-29T15:25:24;7.50;99.90
48535;DHT22;34323;52.022;5.686;2023-01-29T15:27:58;7.50;99.90
48535;DHT22;34323;52.022;5.686;2023-01-29T15:30:30;7.70;99.90
48535;DHT22;34323;52.022;5.686;2023-01-29T15:32:56;7.70;99.90
48535;DHT22;34323;52.022;5.686;2023-01-29T15:35:26;7.40;99.90
48535;DHT22;34323;52.022;5.686;2023-01-29T15:38:22;7.40;99.90
48535;DHT22;34323;52.022;5.686;2023-01-29T15:40:52;7.60;99.90
48535;DHT22;34323;52.022;5.686;2023-01-29T15:43:30;7.70;99.90
48535;DHT22;34323;52.022;5.686;2023-01-29T15:48:43;7.50;99.90
48535;DHT22;34323;52.022;5.686;2023-01-29T15:51:14;7.80;99.90
48535;DHT22;34323;52.022;5.686;2023-01-29T15:53:44;7.70;99.90
48535;DHT22;34323;52.022;5.686;2023-01-29T15:56:17;7.20;99.90
48535;DHT22;34323;52.022;5.686;2023-01-29T15:58:47;6.90;99.90
48535;DHT22;34323;52.022;5.686;2023-01-29T16:01:13;7.20;99.90
48535;DHT22;34323;52.022;5.686;2023-01-29T16:03:39;7.40;99.90
48535;DHT22;34323;52.022;5.686;2023-01-29T16:06:06;7.70;99.90
48535;DHT22;34323;52.022;5.686;2023-01-29T16:08:33;7.50;99.90
48535;DHT22;34323;52.022;5.686;2023-01-29T16:11:04;7.90;99.90
48535;DHT22;34323;52.022;5.686;2023-01-29T16:13:35;7.70;99.90
48535;DHT22;34323;52.022;5.686;2023-01-29T16:16:13;7.80;99.90
48535;DHT22;34323;52.022;5.686;2023-01-29T16:18:44;7.70;99.90
48535;DHT22;34323;52.022;5.686;2023-01-29T16:21:24;8.10;99.90
48535;DHT22;34323;52.022;5.686;2023-01-29T16:23:55;8.10;99.90
48535;DHT22;34323;52.022;5.686;2023-01-29T16:26:27;7.20;99.90
48535;DHT22;34323;52.022;5.686;2023-01-29T16:28:53;7.10;99.90
48535;DHT22;34323;52.022;5.686;2023-01-29T16:31:22;6.70;99.90
48535;DHT22;34323;52.022;5.686;2023-01-29T16:33:50;6.40;99.90
48535;DHT22;34323;52.022;5.686;2023-01-29T16:36:26;6.40;99.90
48535;DHT22;34323;52.022;5.686;2023-01-29T16:43:53;7.10;99.90
48535;DHT22;34323;52.022;5.686;2023-01-29T16:46:24;7.20;99.90
48535;DHT22;34323;52.022;5.686;2023-01-29T16:48:51;7.00;99.90
48535;DHT22;34323;52.022;5.686;2023-01-29T16:51:24;7.10;99.90
48535;DHT22;34323;52.022;5.686;2023-01-29T16:54:05;7.50;99.90
48535;DHT22;34323;52.022;5.686;2023-01-29T16:56:32;7.30;99.90
48535;DHT22;34323;52.022;5.686;2023-01-29T16:58:59;7.30;99.90
48535;DHT22;34323;52.022;5.686;2023-01-29T17:01:27;7.50;99.90
48535;DHT22;34323;52.022;5.686;2023-01-29T17:04:07;7.30;99.90
48535;DHT22;34323;52.022;5.686;2023-01-29T17:06:34;6.90;99.90
48535;DHT22;34323;52.022;5.686;2023-01-29T17:09:00;6.60;99.90
48535;DHT22;34323;52.022;5.686;2023-01-29T17:11:38;7.10;99.90
48535;DHT22;34323;52.022;5.686;2023-01-29T17:14:06;7.30;99.90
48535;DHT22;34323;52.022;5.686;2023-01-29T17:16:46;7.20;99.90
48535;DHT22;34323;52.022;5.686;2023-01-29T17:19:17;7.30;99.90
48535;DHT22;34323;52.022;5.686;2023-01-29T17:21:48;7.20;99.90
48535;DHT22;34323;52.022;5.686;2023-01-29T17:24:14;7.30;99.90
48535;DHT22;34323;52.022;5.686;2023-01-29T17:26:39;7.10;99.90
48535;DHT22;34323;52.022;5.686;2023-01-29T17:29:16;6.80;99.90
48535;DHT22;34323;52.022;5.686;2023-01-29T17:31:42;7.00;99.90
48535;DHT22;34323;52.022;5.686;2023-01-29T17:34:12;7.20;99.90
48535;DHT22;34323;52.022;5.686;2023-01-29T17:36:39;7.30;99.90
48535;DHT22;34323;52.022;5.686;2023-01-29T17:39:25;7.40;99.90
48535;DHT22;34323;52.022;5.686;2023-01-29T17:41:53;6.90;99.90
48535;DHT22;34323;52.022;5.686;2023-01-29T17:44:20;7.00;99.90
48535;DHT22;34323;52.022;5.686;2023-01-29T17:46:46;7.00;99.90
48535;DHT22;34323;52.022;5.686;2023-01-29T17:49:27;7.10;99.90
48535;DHT22;34323;52.022;5.686;2023-01-29T17:51:56;7.10;99.90
48535;DHT22;34323;52.022;5.686;2023-01-29T17:54:22;7.50;99.90
48535;DHT22;34323;52.022;5.686;2023-01-29T17:56:49;8.00;99.90
48535;DHT22;34323;52.022;5.686;2023-01-29T17:59:17;8.30;99.90
48535;DHT22;34323;52.022;5.686;2023-01-29T18:01:43;7.90;99.90
48535;DHT22;34323;52.022;5.686;2023-01-29T18:04:09;7.80;99.90
48535;DHT22;34323;52.022;5.686;2023-01-29T18:06:35;7.60;99.90
48535;DHT22;34323;52.022;5.686;2023-01-29T18:09:01;7.30;99.90
48535;DHT22;34323;52.022;5.686;2023-01-29T18:11:27;7.50;99.90
48535;DHT22;34323;52.022;5.686;2023-01-29T18:13:53;7.50;99.90
48535;DHT22;34323;52.022;5.686;2023-01-29T18:16:19;7.70;99.90